createdAt,value
2022-10-29T00:02:10.009Z,23.23
2022-10-29T00:04:44.391Z,16.83
2022-10-29T00:07:13.118Z,19.80
2022-10-29T00:09:42.525Z,19.53
2022-10-29T00:12:11.651Z,17.30
2022-10-29T00:14:43.513Z,16.80
2022-10-29T00:17:13.010Z,18.83
2022-10-29T00:19:45.815Z,18.57
2022-10-29T00:22:14.941Z,17.60
2022-10-29T00:24:43.052Z,14.87
2022-10-29T00:27:12.460Z,15.43
2022-10-29T00:29:44.572Z,14.93
2022-10-29T00:32:13.788Z,17.60
2022-10-29T00:34:43.420Z,15.43
2022-10-29T00:37:12.632Z,14.30
2022-10-29T00:39:44.485Z,15.03
2022-10-29T00:42:16.188Z,13.60
2022-10-29T00:44:44.485Z,15.27
2022-10-29T00:47:19.624Z,21.60
2022-10-29T00:49:51.430Z,16.40
2022-10-29T00:52:23.445Z,15.27
2022-10-29T00:54:53.399Z,15.73
2022-10-29T00:57:26.337Z,14.80
2022-10-29T00:59:54.407Z,18.80
2022-10-29T01:02:24.219Z,17.83
2022-10-29T01:04:55.098Z,16.60
2022-10-29T01:07:23.681Z,15.23
2022-10-29T01:09:53.040Z,17.00
2022-10-29T01:12:34.617Z,16.00
2022-10-29T01:15:09.863Z,14.77
2022-10-29T01:17:46.705Z,15.47
2022-10-29T01:20:44.622Z,16.30
2022-10-29T01:23:27.262Z,15.40
2022-10-29T01:26:16.023Z,13.70
2022-10-29T01:29:01.812Z,15.90
2022-10-29T01:31:35.464Z,15.00
2022-10-29T01:34:07.032Z,16.63
2022-10-29T01:36:46.840Z,14.17
2022-10-29T01:39:21.446Z,14.40
2022-10-29T01:41:54.291Z,14.93
2022-10-29T01:44:35.310Z,16.10
2022-10-29T01:47:07.786Z,18.13
2022-10-29T01:49:41.565Z,16.27
2022-10-29T01:52:14.046Z,16.53
2022-10-29T01:54:46.408Z,16.90
2022-10-29T01:57:29.757Z,17.43
2022-10-29T01:59:59.807Z,20.00
2022-10-29T02:02:35.351Z,16.93
2022-10-29T02:05:13.265Z,16.80
2022-10-29T02:07:47.086Z,17.60
2022-10-29T02:10:21.379Z,19.53
2022-10-29T02:12:52.524Z,16.87
2022-10-29T02:15:25.311Z,18.07
2022-10-29T02:18:00.219Z,17.83
2022-10-29T02:20:29.254Z,17.00
2022-10-29T02:22:57.395Z,22.37
2022-10-29T02:25:26.333Z,22.57
2022-10-29T02:27:55.887Z,17.70
2022-10-29T02:30:24.197Z,20.77
2022-10-29T02:32:53.666Z,23.40
2022-10-29T02:35:23.600Z,21.47
2022-10-29T02:37:53.002Z,20.90
2022-10-29T02:40:23.945Z,19.90
2022-10-29T02:42:53.154Z,21.60
2022-10-29T02:45:22.233Z,21.33
2022-10-29T02:47:51.619Z,20.37
2022-10-29T02:50:20.346Z,21.07
2022-10-29T02:52:51.081Z,18.70
2022-10-29T02:55:19.336Z,18.87
2022-10-29T02:57:48.808Z,21.20
2022-10-29T03:00:17.739Z,19.80
2022-10-29T03:02:45.836Z,18.93
2022-10-29T03:05:14.363Z,19.73
2022-10-29T03:07:45.036Z,20.90
2022-10-29T03:10:14.750Z,17.73
2022-10-29T03:12:44.889Z,21.47
2022-10-29T03:15:13.381Z,17.00
2022-10-29T03:17:44.930Z,19.47
2022-10-29T03:20:13.347Z,18.67
2022-10-29T03:22:44.962Z,18.67
2022-10-29T03:25:14.910Z,16.67
2022-10-29T03:27:43.206Z,17.50
2022-10-29T03:30:12.958Z,18.07
2022-10-29T03:32:44.814Z,16.23
2022-10-29T03:35:15.439Z,17.90
2022-10-29T03:37:45.879Z,17.03
2022-10-29T03:40:15.706Z,18.77
2022-10-29T03:42:43.882Z,17.83
2022-10-29T03:45:13.102Z,17.13
2022-10-29T03:47:43.223Z,16.20
2022-10-29T03:50:11.416Z,16.67
2022-10-29T03:52:43.038Z,17.57
2022-10-29T03:55:12.478Z,18.17
2022-10-29T03:57:45.195Z,20.20
2022-10-29T04:00:15.382Z,17.10
2022-10-29T04:02:46.286Z,21.37
2022-10-29T04:05:15.705Z,20.07
2022-10-29T04:07:45.912Z,19.43
2022-10-29T04:10:15.614Z,21.27
2022-10-29T04:12:48.066Z,22.70
2022-10-29T04:15:17.672Z,20.50
2022-10-29T04:17:46.318Z,16.83
2022-10-29T04:20:40.618Z,19.70
2022-10-29T04:24:12.167Z,20.77
2022-10-29T04:28:51.070Z,20.70
2022-10-29T04:31:19.842Z,21.10
2022-10-29T04:33:49.383Z,22.23
2022-10-29T04:36:18.393Z,22.90
2022-10-29T04:38:48.018Z,24.97
2022-10-29T04:41:17.110Z,23.87
2022-10-29T04:43:45.383Z,24.13
2022-10-29T04:46:16.027Z,24.10
2022-10-29T04:48:46.238Z,22.30
2022-10-29T04:51:20.721Z,20.40
2022-10-29T04:53:49.411Z,19.80
2022-10-29T04:56:18.729Z,21.63
2022-10-29T04:58:47.545Z,22.07
2022-10-29T05:01:18.483Z,18.60
2022-10-29T05:03:47.433Z,20.30
2022-10-29T05:06:16.424Z,22.20
2022-10-29T05:08:44.843Z,19.93
2022-10-29T05:11:14.449Z,23.20
2022-10-29T05:13:45.629Z,21.80
2022-10-29T05:16:14.492Z,21.13
2022-10-29T05:18:48.361Z,22.57
2022-10-29T05:21:16.507Z,20.73
2022-10-29T05:23:44.614Z,20.50
2022-10-29T05:26:13.503Z,17.17
2022-10-29T05:28:45.437Z,18.30
2022-10-29T05:31:14.501Z,16.90
2022-10-29T05:33:50.051Z,18.67
2022-10-29T05:36:21.684Z,19.40
2022-10-29T05:38:51.836Z,17.53
2022-10-29T05:41:20.992Z,20.13
2022-10-29T05:43:50.298Z,23.80
2022-10-29T05:46:20.032Z,16.70
2022-10-29T05:48:49.878Z,19.20
2022-10-29T05:51:18.988Z,16.90
2022-10-29T05:53:48.381Z,16.20
2022-10-29T05:56:16.954Z,21.40
2022-10-29T05:58:45.499Z,17.47
2022-10-29T06:01:14.718Z,17.43
2022-10-29T06:03:45.643Z,19.03
2022-10-29T06:06:15.957Z,19.20
2022-10-29T06:08:46.700Z,21.77
2022-10-29T06:11:16.210Z,17.70
2022-10-29T06:13:44.344Z,20.00
2022-10-29T06:16:13.415Z,19.70
2022-10-29T06:18:42.269Z,21.73
2022-10-29T06:21:10.319Z,19.20
2022-10-29T06:23:41.071Z,17.37
2022-10-29T06:26:10.339Z,19.60
2022-10-29T06:28:41.339Z,21.13
2022-10-29T06:31:10.421Z,22.77
2022-10-29T06:33:41.532Z,21.60
2022-10-29T06:36:10.759Z,20.00
2022-10-29T06:38:45.080Z,21.70
2022-10-29T06:41:16.417Z,24.10
2022-10-29T06:43:46.910Z,17.30
2022-10-29T06:46:16.246Z,21.47
2022-10-29T06:48:46.455Z,17.13
2022-10-29T06:51:16.120Z,17.87
2022-10-29T06:53:49.087Z,20.13
2022-10-29T06:56:18.195Z,20.53
2022-10-29T06:58:46.557Z,20.33
2022-10-29T07:01:16.083Z,21.87
2022-10-29T07:03:46.279Z,22.90
2022-10-29T07:06:14.694Z,18.30
2022-10-29T07:08:48.584Z,25.40
2022-10-29T07:11:17.767Z,20.80
2022-10-29T07:13:47.321Z,22.50
2022-10-29T07:16:15.600Z,19.37
2022-10-29T07:18:45.758Z,19.00
2022-10-29T07:21:14.991Z,20.10
2022-10-29T07:23:45.399Z,16.73
2022-10-29T07:26:15.051Z,19.33
2022-10-29T07:28:45.450Z,17.63
2022-10-29T07:31:13.628Z,18.20
2022-10-29T07:33:43.089Z,17.90
2022-10-29T07:36:11.587Z,20.67
2022-10-29T07:38:41.882Z,16.80
2022-10-29T07:41:10.687Z,18.00
2022-10-29T07:43:44.127Z,21.67
2022-10-29T07:46:13.413Z,17.80
2022-10-29T07:48:44.825Z,17.93
2022-10-29T07:51:14.119Z,20.23
2022-10-29T07:53:45.470Z,19.67
2022-10-29T07:56:13.654Z,15.43
2022-10-29T07:58:45.512Z,16.33
2022-10-29T08:01:13.805Z,15.07
2022-10-29T08:03:43.187Z,19.33
2022-10-29T08:06:11.828Z,13.33
2022-10-29T08:08:44.788Z,13.17
2022-10-29T08:11:13.660Z,14.73
2022-10-29T08:13:44.532Z,14.93
2022-10-29T08:16:12.676Z,16.87
2022-10-29T08:18:43.667Z,14.67
2022-10-29T08:21:12.633Z,13.77
2022-10-29T08:23:42.254Z,15.00
2022-10-29T08:26:10.701Z,11.40
2022-10-29T08:28:42.871Z,12.03
2022-10-29T08:31:13.101Z,12.37
2022-10-29T08:33:43.009Z,9.20
2022-10-29T08:36:11.831Z,9.10
2022-10-29T08:38:45.331Z,9.20
2022-10-29T08:41:35.265Z,10.43
2022-10-29T08:44:25.574Z,9.70
2022-10-29T08:47:03.729Z,9.10
2022-10-29T08:49:46.083Z,8.80
2022-10-29T08:52:20.268Z,9.43
2022-10-29T08:54:54.140Z,9.93
2022-10-29T08:57:24.446Z,9.90
2022-10-29T09:00:05.474Z,10.80
2022-10-29T09:02:35.140Z,9.40
2022-10-29T09:05:04.159Z,11.03
2022-10-29T09:07:45.824Z,10.07
2022-10-29T09:10:22.571Z,9.40
2022-10-29T09:13:16.785Z,11.10
2022-10-29T09:15:57.783Z,11.87
2022-10-29T09:18:40.996Z,9.93
2022-10-29T09:21:22.351Z,10.73
2022-10-29T09:24:03.069Z,10.77
2022-10-29T09:26:35.011Z,9.20
2022-10-29T09:29:17.586Z,12.60
2022-10-29T09:31:49.858Z,10.07
2022-10-29T09:34:25.843Z,11.10
2022-10-29T09:36:55.457Z,10.43
2022-10-29T09:39:33.967Z,11.60
2022-10-29T09:42:06.845Z,10.43
2022-10-29T09:44:41.626Z,12.23
2022-10-29T09:47:18.282Z,12.53
2022-10-29T09:50:05.193Z,11.60
2022-10-29T09:52:37.984Z,13.37
2022-10-29T09:55:18.930Z,12.07
2022-10-29T09:57:49.768Z,16.10
2022-10-29T10:00:22.341Z,13.20
2022-10-29T10:02:56.738Z,13.83
2022-10-29T10:05:30.041Z,12.57
2022-10-29T10:08:10.556Z,13.10
2022-10-29T10:10:52.070Z,14.67
2022-10-29T10:13:26.120Z,15.60
2022-10-29T10:15:58.431Z,14.50
2022-10-29T10:18:28.959Z,12.60
2022-10-29T10:21:05.365Z,11.20
2022-10-29T10:23:46.820Z,11.37
2022-10-29T10:26:30.886Z,13.80
2022-10-29T10:29:12.084Z,12.93
2022-10-29T10:31:43.272Z,12.50
2022-10-29T10:34:20.097Z,13.03
2022-10-29T10:36:53.774Z,14.43
2022-10-29T10:39:28.761Z,12.83
2022-10-29T10:41:59.269Z,12.77
2022-10-29T10:44:28.345Z,11.87
2022-10-29T10:47:00.972Z,12.77
2022-10-29T10:49:32.939Z,14.83
2022-10-29T10:52:06.018Z,12.43
2022-10-29T10:54:40.506Z,14.27
2022-10-29T10:57:21.970Z,12.70
2022-10-29T11:00:01.646Z,13.03
2022-10-29T11:02:35.798Z,14.30
2022-10-29T11:05:11.308Z,13.47
2022-10-29T11:07:47.566Z,14.17
2022-10-29T11:10:16.862Z,12.73
2022-10-29T11:12:48.761Z,13.23
2022-10-29T11:15:21.140Z,16.20
2022-10-29T11:17:54.936Z,14.27
2022-10-29T11:20:26.306Z,16.60
2022-10-29T11:23:03.918Z,19.23
2022-10-29T11:25:42.326Z,14.83
2022-10-29T11:28:22.612Z,15.40
2022-10-29T11:30:53.481Z,17.13
2022-10-29T11:33:26.497Z,20.73
2022-10-29T11:36:00.537Z,26.97
2022-10-29T11:38:35.425Z,30.77
2022-10-29T11:41:07.545Z,30.67
2022-10-29T11:43:36.722Z,38.67
2022-10-29T11:46:11.112Z,31.50
2022-10-29T11:48:50.469Z,39.93
2022-10-29T11:51:27.390Z,33.53
2022-10-29T11:54:02.557Z,39.63
2022-10-29T11:56:57.362Z,35.10
2022-10-29T11:59:36.306Z,37.23
2022-10-29T12:02:12.315Z,39.17
2022-10-29T12:04:45.160Z,37.90
2022-10-29T12:07:22.477Z,38.23
2022-10-29T12:10:04.614Z,40.87
2022-10-29T12:12:41.909Z,44.17
2022-10-29T12:15:17.567Z,44.27
2022-10-29T12:17:49.570Z,39.77
2022-10-29T12:20:26.667Z,37.57
2022-10-29T12:23:03.680Z,39.23
2022-10-29T12:25:45.490Z,41.40
2022-10-29T12:28:20.152Z,42.37
2022-10-29T12:31:01.832Z,32.17
2022-10-29T12:33:37.803Z,33.73
2022-10-29T12:36:10.840Z,26.90
2022-10-29T12:38:42.327Z,26.73
2022-10-29T12:41:18.155Z,26.70
2022-10-29T12:43:47.440Z,23.63
2022-10-29T12:46:23.323Z,28.07
2022-10-29T12:48:59.534Z,23.33
2022-10-29T12:51:34.616Z,28.17
2022-10-29T12:54:17.814Z,25.60
2022-10-29T12:56:50.416Z,25.10
2022-10-29T12:59:39.448Z,27.03
2022-10-29T13:02:27.853Z,29.43
2022-10-29T13:05:14.367Z,31.03
2022-10-29T13:08:09.899Z,35.27
2022-10-29T13:10:55.593Z,33.70
2022-10-29T13:14:00.524Z,36.83
2022-10-29T13:16:30.856Z,36.73
2022-10-29T13:19:18.211Z,33.27
2022-10-29T13:22:01.786Z,34.33
2022-10-29T13:24:31.863Z,36.97
2022-10-29T13:27:34.077Z,32.37
2022-10-29T13:30:25.459Z,34.17
2022-10-29T13:32:54.881Z,34.50
2022-10-29T13:35:43.528Z,32.47
2022-10-29T13:38:17.259Z,34.97
2022-10-29T13:41:09.003Z,31.20
2022-10-29T13:43:37.438Z,27.00
2022-10-29T13:46:25.638Z,21.97
2022-10-29T13:48:55.474Z,18.23
2022-10-29T13:51:31.417Z,19.77
2022-10-29T13:54:03.183Z,18.83
2022-10-29T13:56:37.388Z,17.93
2022-10-29T13:59:15.011Z,18.47
2022-10-29T14:02:00.346Z,16.80
2022-10-29T14:04:33.055Z,16.50
2022-10-29T14:07:06.485Z,20.30
2022-10-29T14:09:49.135Z,21.20
2022-10-29T14:12:21.492Z,17.87
2022-10-29T14:15:01.154Z,18.70
2022-10-29T14:17:30.616Z,19.10
2022-10-29T14:19:59.144Z,15.07
2022-10-29T14:22:33.482Z,16.83
2022-10-29T14:25:03.575Z,18.90
2022-10-29T14:27:31.637Z,19.90
2022-10-29T14:30:14.050Z,14.57
2022-10-29T14:32:45.489Z,17.57
2022-10-29T14:35:17.721Z,20.23
2022-10-29T14:37:47.956Z,22.43
2022-10-29T14:40:21.674Z,18.73
2022-10-29T14:42:55.691Z,18.17
2022-10-29T14:45:28.519Z,19.80
2022-10-29T14:47:59.396Z,18.47
2022-10-29T14:50:29.344Z,22.33
2022-10-29T14:53:00.754Z,21.47
2022-10-29T14:55:32.482Z,18.40
2022-10-29T14:58:05.436Z,19.10
2022-10-29T15:00:37.339Z,23.20
2022-10-29T15:03:08.095Z,25.30
2022-10-29T15:05:46.537Z,33.30
2022-10-29T15:08:19.168Z,20.17
2022-10-29T15:10:50.092Z,25.37
2022-10-29T15:13:25.210Z,22.73
2022-10-29T15:15:58.861Z,22.47
2022-10-29T15:18:30.402Z,22.83
2022-10-29T15:20:59.574Z,22.10
2022-10-29T15:23:30.277Z,20.27
2022-10-29T15:26:01.842Z,25.57
2022-10-29T15:28:32.873Z,20.40
2022-10-29T15:31:03.271Z,22.17
2022-10-29T15:33:34.101Z,24.60
2022-10-29T15:36:03.663Z,22.43
2022-10-29T15:39:15.353Z,21.30
2022-10-29T15:41:48.471Z,23.07
2022-10-29T15:44:36.092Z,24.40
2022-10-29T15:47:20.174Z,26.23
2022-10-29T15:49:51.134Z,24.47
2022-10-29T15:52:20.171Z,26.60
2022-10-29T15:54:49.574Z,25.43
2022-10-29T15:57:17.832Z,21.67
2022-10-29T15:59:47.514Z,22.63
2022-10-29T16:02:18.648Z,24.13
2022-10-29T16:04:48.071Z,21.47
2022-10-29T16:07:19.061Z,24.13
2022-10-29T16:09:50.386Z,26.10
2022-10-29T16:12:18.561Z,23.90
2022-10-29T16:14:47.766Z,25.53
2022-10-29T16:17:17.871Z,21.73
2022-10-29T16:19:47.189Z,24.43
2022-10-29T16:22:16.762Z,23.40
2022-10-29T16:24:48.698Z,30.23
2022-10-29T16:27:18.523Z,24.90
2022-10-29T16:29:49.655Z,22.57
2022-10-29T16:32:19.020Z,23.50
2022-10-29T16:34:48.513Z,22.57
2022-10-29T16:37:18.186Z,26.57
2022-10-29T16:39:48.601Z,21.50
2022-10-29T16:42:28.629Z,24.07
2022-10-29T16:44:58.197Z,26.23
2022-10-29T16:47:26.441Z,21.60
2022-10-29T16:49:54.603Z,27.83
2022-10-29T16:52:25.223Z,24.07
2022-10-29T16:54:57.689Z,24.60
2022-10-29T16:57:26.001Z,25.03
2022-10-29T16:59:54.077Z,26.73
2022-10-29T17:02:22.155Z,24.73
2022-10-29T17:04:51.647Z,23.70
2022-10-29T17:07:20.378Z,23.40
2022-10-29T17:09:49.832Z,23.40
2022-10-29T17:12:19.916Z,27.70
2022-10-29T17:14:49.625Z,21.77
2022-10-29T17:17:20.474Z,22.23
2022-10-29T17:19:49.987Z,25.67
2022-10-29T17:22:18.070Z,21.27
2022-10-29T17:24:47.257Z,21.13
2022-10-29T17:27:20.274Z,21.70
2022-10-29T17:29:50.072Z,22.07
2022-10-29T17:32:18.809Z,18.23
2022-10-29T17:34:48.161Z,21.73
2022-10-29T17:37:18.307Z,20.53
2022-10-29T17:39:47.698Z,21.47
2022-10-29T17:42:26.838Z,21.90
2022-10-29T17:44:58.443Z,23.30
2022-10-29T17:47:27.293Z,23.10
2022-10-29T17:49:56.200Z,23.83
2022-10-29T17:52:28.825Z,27.53
2022-10-29T17:55:12.342Z,27.30
2022-10-29T17:57:47.514Z,31.90
2022-10-29T18:00:25.045Z,26.83
2022-10-29T18:05:33.731Z,30.27
2022-10-29T18:08:03.313Z,27.27
2022-10-29T18:10:33.663Z,33.53
2022-10-29T18:13:12.128Z,26.90
2022-10-29T18:15:42.578Z,31.07
2022-10-29T18:18:16.621Z,30.93
2022-10-29T18:20:51.940Z,32.03
2022-10-29T18:23:20.594Z,31.27
2022-10-29T18:26:02.987Z,33.77
2022-10-29T18:28:38.495Z,29.70
2022-10-29T18:31:14.468Z,33.10
2022-10-29T18:33:48.089Z,34.23
2022-10-29T18:36:19.462Z,38.10
2022-10-29T18:38:51.348Z,43.30
2022-10-29T18:41:22.458Z,36.87
2022-10-29T18:43:55.719Z,36.30
2022-10-29T18:46:33.975Z,32.87
2022-10-29T18:49:06.117Z,34.53
2022-10-29T18:51:36.023Z,36.47
2022-10-29T18:54:07.043Z,33.10
2022-10-29T18:56:40.538Z,27.90
2022-10-29T18:59:15.258Z,27.57
2022-10-29T19:01:46.998Z,24.60
2022-10-29T19:04:17.222Z,28.03
2022-10-29T19:06:49.770Z,24.33
2022-10-29T19:09:18.127Z,25.67
2022-10-29T19:11:55.390Z,27.50
2022-10-29T19:14:29.726Z,29.23
2022-10-29T19:17:02.298Z,25.43
2022-10-29T19:19:33.230Z,27.57
2022-10-29T19:22:02.888Z,28.17
2022-10-29T19:24:31.969Z,26.27
2022-10-29T19:27:01.595Z,30.57
2022-10-29T19:29:41.965Z,28.57
2022-10-29T19:32:11.573Z,28.97
2022-10-29T19:34:48.477Z,28.70
2022-10-29T19:37:17.515Z,27.20
2022-10-29T19:39:48.974Z,27.87
2022-10-29T19:42:24.791Z,29.53
2022-10-29T19:44:57.332Z,27.60
2022-10-29T19:47:25.944Z,28.40
2022-10-29T19:49:54.613Z,29.37
2022-10-29T19:52:31.189Z,27.70
2022-10-29T19:55:00.173Z,26.10
2022-10-29T19:57:28.811Z,26.73
2022-10-29T19:59:59.944Z,29.07
2022-10-29T20:02:31.807Z,26.20
2022-10-29T20:05:02.376Z,27.87
2022-10-29T20:07:32.344Z,26.33
2022-10-29T20:10:04.441Z,23.80
2022-10-29T20:12:32.976Z,23.60
2022-10-29T20:15:06.119Z,25.37
2022-10-29T20:17:35.043Z,25.50
2022-10-29T20:20:05.365Z,21.20
2022-10-29T20:22:34.172Z,22.77
2022-10-29T20:25:23.879Z,24.13
2022-10-29T20:27:56.081Z,22.53
2022-10-29T20:30:28.374Z,24.53
2022-10-29T20:32:58.297Z,26.13
2022-10-29T20:35:36.957Z,25.17
2022-10-29T20:38:09.899Z,23.70
2022-10-29T20:40:39.873Z,22.90
2022-10-29T20:43:08.413Z,23.53
2022-10-29T20:45:42.967Z,24.77
2022-10-29T20:48:13.041Z,21.13
2022-10-29T20:50:42.161Z,19.60
2022-10-29T20:53:11.784Z,19.57
2022-10-29T20:55:42.667Z,21.30
2022-10-29T20:58:11.688Z,24.40
2022-10-29T21:00:54.574Z,22.23
2022-10-29T21:03:23.665Z,22.93
2022-10-29T21:05:52.734Z,19.77
2022-10-29T21:08:21.241Z,21.80
2022-10-29T21:10:53.061Z,23.60
2022-10-29T21:13:21.721Z,21.10
2022-10-29T21:16:00.171Z,23.57
2022-10-29T21:18:29.524Z,21.77
2022-10-29T21:21:03.882Z,22.27
2022-10-29T21:23:33.191Z,23.50
2022-10-29T21:26:02.808Z,24.63
2022-10-29T21:28:35.461Z,24.77
2022-10-29T21:31:10.169Z,21.93
2022-10-29T21:33:38.420Z,23.77
2022-10-29T21:36:15.495Z,21.23
2022-10-29T21:38:44.749Z,22.70
2022-10-29T21:41:12.924Z,23.57
2022-10-29T21:43:41.288Z,21.43
2022-10-29T21:46:10.919Z,24.63
2022-10-29T21:48:38.967Z,26.40
2022-10-29T21:51:08.024Z,25.47
2022-10-29T21:53:36.321Z,25.30
2022-10-29T21:56:06.286Z,25.20
2022-10-29T21:58:34.362Z,25.93
2022-10-29T22:01:04.264Z,24.30
2022-10-29T22:03:34.383Z,22.30
2022-10-29T22:06:03.716Z,23.67
2022-10-29T22:08:31.828Z,26.03
2022-10-29T22:11:00.148Z,23.80
2022-10-29T22:13:28.436Z,24.57
2022-10-29T22:15:56.695Z,21.60
2022-10-29T22:18:25.258Z,24.20
2022-10-29T22:21:05.475Z,26.03
2022-10-29T22:23:33.528Z,23.10
2022-10-29T22:26:01.778Z,25.53
2022-10-29T22:28:29.787Z,23.60
2022-10-29T22:31:01.333Z,22.93
2022-10-29T22:33:29.781Z,25.77
2022-10-29T22:36:02.994Z,22.77
2022-10-29T22:38:32.363Z,23.73
2022-10-29T22:41:06.936Z,25.70
2022-10-29T22:43:35.135Z,25.63
2022-10-29T22:46:04.226Z,29.53
2022-10-29T22:48:32.508Z,25.07
2022-10-29T22:51:01.930Z,25.33
2022-10-29T22:53:30.033Z,24.93
2022-10-29T22:56:01.224Z,24.63
2022-10-29T22:58:29.866Z,26.40
2022-10-29T23:01:07.077Z,24.37
2022-10-29T23:03:36.190Z,23.33
2022-10-29T23:06:06.618Z,21.27
2022-10-29T23:08:34.980Z,22.17
2022-10-29T23:11:09.545Z,24.17
2022-10-29T23:13:41.301Z,18.77
2022-10-29T23:16:09.856Z,21.40
2022-10-29T23:18:39.277Z,19.70
2022-10-29T23:21:09.412Z,20.57
2022-10-29T23:23:41.342Z,20.43
2022-10-29T23:26:11.735Z,18.57
2022-10-29T23:28:42.504Z,20.70
2022-10-29T23:31:13.294Z,21.57
2022-10-29T23:33:45.779Z,18.33
2022-10-29T23:36:15.680Z,18.17
2022-10-29T23:38:45.876Z,19.27
2022-10-29T23:41:16.247Z,16.43
2022-10-29T23:43:47.026Z,15.80
2022-10-29T23:46:16.000Z,16.97
2022-10-29T23:48:44.028Z,18.80
2022-10-29T23:51:13.023Z,15.93
2022-10-29T23:53:42.509Z,15.93
2022-10-29T23:56:10.911Z,15.53
2022-10-29T23:58:47.241Z,17.43
